PILOTS ONLINE: 376    ATC ONLINE: 59

Location

IATA URG
City Uruguaiana
Country  Brazil
Latitude 29° 46' 55" S
Longitude 57° 2' 17" W
Elevation 256 ft
Type Medium Airport

Weather

METAR
2014/07/14 14:00
SBUG 141400Z 04009KT 9999 FEW033 BKN100 19/15 Q1018
TAF
2014/07/14 12:21
TAF SBUG 141000Z 1412/1512 04006KT 9999 FEW035 TX22/1418Z TN16/1509Z 
      RMK PCD

Runways

4/22 2625 ft / 164 ft
9/27 4921 ft / 98 ft

Outbound flights

Inbound flights


Spotted incorrect airport information? Please login with your VATSIM ID.